createdAt,value
2023-04-13T00:00:35.591Z,78.69
2023-04-13T00:03:04.645Z,78.65
2023-04-13T00:05:34.693Z,78.63
2023-04-13T00:08:09.276Z,78.50
2023-04-13T00:10:41.412Z,78.39
2023-04-13T00:13:10.451Z,78.32
2023-04-13T00:15:42.145Z,78.29
2023-04-13T00:18:13.020Z,78.25
2023-04-13T00:20:43.696Z,78.16
2023-04-13T00:23:12.522Z,78.05
2023-04-13T00:25:42.222Z,78.03
2023-04-13T00:28:11.973Z,78.13
2023-04-13T00:30:40.211Z,78.08
2023-04-13T00:33:08.892Z,77.89
2023-04-13T00:35:37.513Z,77.75
2023-04-13T00:38:05.551Z,77.67
2023-04-13T00:40:33.938Z,77.61
2023-04-13T00:43:02.825Z,77.51
2023-04-13T00:45:32.246Z,77.50
2023-04-13T00:48:05.059Z,77.68
2023-04-13T00:50:34.438Z,77.49
2023-04-13T00:53:02.503Z,77.57
2023-04-13T00:55:34.202Z,77.48
2023-04-13T00:58:02.514Z,77.34
2023-04-13T01:00:30.752Z,77.24
2023-04-13T01:03:02.650Z,77.08
2023-04-13T01:05:36.075Z,77.10
2023-04-13T01:08:28.710Z,77.12
2023-04-13T01:11:03.612Z,76.94
2023-04-13T01:13:41.558Z,77.04
2023-04-13T01:16:21.395Z,77.00
2023-04-13T01:18:52.462Z,76.97
2023-04-13T01:21:24.815Z,76.94
2023-04-13T01:24:37.708Z,76.98
2023-04-13T01:27:15.392Z,76.91
2023-04-13T01:29:44.842Z,77.07
2023-04-13T01:32:16.443Z,77.06
2023-04-13T01:34:45.742Z,77.05
2023-04-13T01:37:14.530Z,76.94
2023-04-13T01:39:43.382Z,76.94
2023-04-13T01:42:32.773Z,77.01
2023-04-13T01:45:03.333Z,76.98
2023-04-13T01:47:31.828Z,76.95
2023-04-13T01:50:27.025Z,76.98
2023-04-13T01:53:08.273Z,76.87
2023-04-13T01:55:42.888Z,76.81
2023-04-13T01:58:13.242Z,76.80
2023-04-13T02:00:41.985Z,76.74
2023-04-13T02:03:13.518Z,76.70
2023-04-13T02:05:43.023Z,76.54
2023-04-13T02:08:11.289Z,76.48
2023-04-13T02:10:47.028Z,76.46
2023-04-13T02:13:17.028Z,76.26
2023-04-13T02:15:47.052Z,76.18
2023-04-13T02:18:15.081Z,76.18
2023-04-13T02:20:43.144Z,76.21
2023-04-13T02:23:18.066Z,76.39
2023-04-13T02:25:47.941Z,76.49
2023-04-13T02:28:18.279Z,76.48
2023-04-13T02:30:54.990Z,76.64
2023-04-13T02:33:24.383Z,76.59
2023-04-13T02:35:52.769Z,76.43
2023-04-13T02:38:21.038Z,76.44
2023-04-13T02:40:59.490Z,76.62
2023-04-13T02:43:29.072Z,76.71
2023-04-13T02:45:58.346Z,76.72
2023-04-13T02:48:32.640Z,76.71
2023-04-13T02:51:01.221Z,76.69
2023-04-13T02:53:31.885Z,76.63
2023-04-13T02:56:03.299Z,76.45
2023-04-13T02:58:32.684Z,76.56
2023-04-13T03:01:04.611Z,76.66
2023-04-13T03:03:33.802Z,76.77
2023-04-13T03:06:02.380Z,76.90
2023-04-13T03:08:46.421Z,76.96
2023-04-13T03:11:26.466Z,76.90
2023-04-13T03:14:13.275Z,76.80
2023-04-13T03:16:41.964Z,76.71
2023-04-13T03:19:13.328Z,76.63
2023-04-13T03:21:44.679Z,76.58
2023-04-13T03:24:15.104Z,76.73
2023-04-13T03:26:43.359Z,76.84
2023-04-13T03:29:15.607Z,76.93
2023-04-13T03:31:46.670Z,76.97
2023-04-13T03:34:15.546Z,76.86
2023-04-13T03:36:44.329Z,76.88
2023-04-13T03:39:14.055Z,76.90
2023-04-13T03:41:42.413Z,76.97
2023-04-13T03:44:11.083Z,76.93
2023-04-13T03:46:41.628Z,76.97
2023-04-13T03:49:36.438Z,76.88
2023-04-13T03:52:05.064Z,76.79
2023-04-13T03:54:38.353Z,76.78
2023-04-13T03:57:06.750Z,76.78
2023-04-13T03:59:35.500Z,76.86
2023-04-13T04:02:05.304Z,76.80
2023-04-13T04:04:34.890Z,76.64
2023-04-13T04:07:05.820Z,76.65
2023-04-13T04:09:34.889Z,76.67
2023-04-13T04:12:03.957Z,76.54
2023-04-13T04:14:40.249Z,76.52
2023-04-13T04:17:21.833Z,76.59
2023-04-13T04:19:51.277Z,76.50
2023-04-13T04:22:22.389Z,76.53
2023-04-13T04:24:52.701Z,76.68
2023-04-13T04:27:26.407Z,76.70
2023-04-13T04:29:59.356Z,76.63
2023-04-13T04:32:46.227Z,76.39
2023-04-13T04:35:17.910Z,76.38
2023-04-13T04:37:51.233Z,76.27
2023-04-13T04:40:21.050Z,76.31
2023-04-13T04:42:49.821Z,76.40
2023-04-13T04:45:33.044Z,76.31
2023-04-13T04:48:04.086Z,76.14
2023-04-13T04:50:33.696Z,76.15
2023-04-13T04:53:13.490Z,76.17
2023-04-13T04:55:42.109Z,76.08
2023-04-13T04:58:19.728Z,76.06
2023-04-13T05:00:52.848Z,75.98
2023-04-13T05:03:32.367Z,75.79
2023-04-13T05:06:09.577Z,75.72
2023-04-13T05:08:41.947Z,75.60
2023-04-13T05:11:10.462Z,75.43
2023-04-13T05:13:39.174Z,75.43
2023-04-13T05:16:23.519Z,75.32
2023-04-13T05:18:52.688Z,75.13
2023-04-13T05:21:46.975Z,74.79
2023-04-13T05:24:15.663Z,74.66
2023-04-13T05:26:44.786Z,74.50
2023-04-13T05:29:14.703Z,74.28
2023-04-13T05:31:44.685Z,74.03
2023-04-13T05:34:13.416Z,73.90
2023-04-13T05:36:44.305Z,73.85
2023-04-13T05:39:14.452Z,73.91
2023-04-13T05:41:42.866Z,73.79
2023-04-13T05:44:14.264Z,73.41
2023-04-13T05:46:43.354Z,73.02
2023-04-13T05:49:11.758Z,72.70
2023-04-13T05:51:42.173Z,72.40
2023-04-13T05:54:11.412Z,72.18
2023-04-13T05:56:41.199Z,71.72
2023-04-13T05:59:09.598Z,71.23
2023-04-13T06:01:38.088Z,71.06
2023-04-13T06:04:07.037Z,70.57
2023-04-13T06:06:36.238Z,70.77
2023-04-13T06:09:05.855Z,70.79
2023-04-13T06:11:33.968Z,71.13
2023-04-13T06:14:06.392Z,71.01
2023-04-13T06:16:34.617Z,70.90
2023-04-13T06:19:03.007Z,70.74
2023-04-13T06:21:36.863Z,70.49
2023-04-13T06:24:05.444Z,70.26
2023-04-13T06:26:35.438Z,70.05
2023-04-13T06:29:04.578Z,69.89
2023-04-13T06:31:40.881Z,69.63
2023-04-13T06:34:13.929Z,69.40
2023-04-13T06:36:43.086Z,69.36
2023-04-13T06:39:13.918Z,69.30
2023-04-13T06:41:43.195Z,69.15
2023-04-13T06:44:43.053Z,68.92
2023-04-13T06:47:11.845Z,68.91
2023-04-13T06:49:45.144Z,69.28
2023-04-13T06:52:13.644Z,69.51
2023-04-13T06:54:41.694Z,69.53
2023-04-13T06:57:21.095Z,69.50
2023-04-13T06:59:49.142Z,69.57
2023-04-13T07:02:18.059Z,69.24
2023-04-13T07:04:46.742Z,68.90
2023-04-13T07:07:15.156Z,68.79
2023-04-13T07:09:43.915Z,68.80
2023-04-13T07:12:14.222Z,68.52
2023-04-13T07:14:43.135Z,68.21
2023-04-13T07:17:13.352Z,67.92
2023-04-13T07:19:48.082Z,67.49
2023-04-13T07:22:17.701Z,67.24
2023-04-13T07:24:47.469Z,66.93
2023-04-13T07:27:18.457Z,66.44
2023-04-13T07:29:46.606Z,66.14
2023-04-13T07:32:19.606Z,65.58
2023-04-13T07:34:48.960Z,65.17
2023-04-13T07:37:17.752Z,65.03
2023-04-13T07:39:46.173Z,64.97
2023-04-13T07:42:14.415Z,64.68
2023-04-13T07:44:46.926Z,64.34
2023-04-13T07:47:16.880Z,63.82
2023-04-13T07:49:45.970Z,63.41
2023-04-13T07:52:16.365Z,62.82
2023-04-13T07:54:44.680Z,62.11
2023-04-13T07:57:13.276Z,61.70
2023-04-13T07:59:46.816Z,61.29
2023-04-13T08:02:17.362Z,61.00
2023-04-13T08:04:48.329Z,60.71
2023-04-13T08:07:23.105Z,60.54
2023-04-13T08:09:52.805Z,60.49
2023-04-13T08:12:23.144Z,60.36
2023-04-13T08:14:54.462Z,60.51
2023-04-13T08:17:26.418Z,60.70
2023-04-13T08:19:54.801Z,60.71
2023-04-13T08:22:28.591Z,60.72
2023-04-13T08:24:57.838Z,61.00
2023-04-13T08:27:26.049Z,60.87
2023-04-13T08:30:02.059Z,60.80
2023-04-13T08:32:38.396Z,60.70
2023-04-13T08:35:07.772Z,60.46
2023-04-13T08:37:37.076Z,60.17
2023-04-13T08:40:12.305Z,59.80
2023-04-13T08:42:42.468Z,59.70
2023-04-13T08:45:11.297Z,59.55
2023-04-13T08:47:41.989Z,59.36
2023-04-13T08:50:11.298Z,59.28
2023-04-13T08:52:43.120Z,59.21
2023-04-13T08:55:18.112Z,58.79
2023-04-13T08:57:51.203Z,58.62
2023-04-13T09:00:22.131Z,58.67
2023-04-13T09:03:04.464Z,58.60
2023-04-13T09:05:39.056Z,58.21
2023-04-13T09:08:08.258Z,57.84
2023-04-13T09:10:41.304Z,57.74
2023-04-13T09:13:10.114Z,57.71
2023-04-13T09:15:39.150Z,57.67
2023-04-13T09:18:21.664Z,57.41
2023-04-13T09:20:56.786Z,57.09
2023-04-13T09:23:29.966Z,56.31
2023-04-13T09:26:10.672Z,56.61
2023-04-13T09:28:47.601Z,56.74
2023-04-13T09:31:16.512Z,56.79
2023-04-13T09:33:50.209Z,56.57
2023-04-13T09:36:26.133Z,56.38
2023-04-13T09:38:58.142Z,56.48
2023-04-13T09:41:36.706Z,56.08
2023-04-13T09:44:18.088Z,55.91
2023-04-13T09:47:03.171Z,55.77
2023-04-13T09:49:39.199Z,55.94
2023-04-13T09:52:25.165Z,55.56
2023-04-13T09:54:55.754Z,55.75
2023-04-13T09:57:29.413Z,55.54
2023-04-13T10:00:07.382Z,55.37
2023-04-13T10:02:43.055Z,55.56
2023-04-13T10:05:12.580Z,55.82
2023-04-13T10:07:44.271Z,55.76
2023-04-13T10:10:12.740Z,56.11
2023-04-13T10:12:44.331Z,56.00
2023-04-13T10:15:37.320Z,56.08
2023-04-13T10:19:06.509Z,55.81
2023-04-13T10:21:40.094Z,56.24
2023-04-13T10:24:12.380Z,56.36
2023-04-13T10:26:42.273Z,56.23
2023-04-13T10:29:11.777Z,56.31
2023-04-13T10:31:41.959Z,56.18
2023-04-13T10:34:10.892Z,56.61
2023-04-13T10:36:40.929Z,57.21
2023-04-13T10:39:12.616Z,57.58
2023-04-13T10:41:41.230Z,57.62
2023-04-13T10:44:10.717Z,57.46
2023-04-13T10:46:39.272Z,57.27
2023-04-13T10:49:10.709Z,57.37
2023-04-13T10:51:40.438Z,57.49
2023-04-13T10:54:09.874Z,57.73
2023-04-13T10:56:38.199Z,58.02
2023-04-13T10:59:07.141Z,58.26
2023-04-13T11:01:35.973Z,58.34
2023-04-13T11:04:07.897Z,58.38
2023-04-13T11:06:39.154Z,58.43
2023-04-13T11:09:13.160Z,58.24
2023-04-13T11:11:42.221Z,58.43
2023-04-13T11:14:21.527Z,58.54
2023-04-13T11:16:50.894Z,58.70
2023-04-13T11:19:19.519Z,58.55
2023-04-13T11:21:54.209Z,58.67
2023-04-13T11:24:29.851Z,58.67
2023-04-13T11:26:58.038Z,58.60
2023-04-13T11:29:27.424Z,58.35
2023-04-13T11:31:55.744Z,58.43
2023-04-13T11:34:26.481Z,58.27
2023-04-13T11:37:05.380Z,57.93
2023-04-13T11:39:36.588Z,58.11
2023-04-13T11:42:07.020Z,58.55
2023-04-13T11:44:39.104Z,58.69
2023-04-13T11:47:16.432Z,58.83
2023-04-13T11:49:51.839Z,59.01
2023-04-13T11:52:21.175Z,58.86
2023-04-13T11:54:51.088Z,58.97
2023-04-13T11:57:22.354Z,58.85
2023-04-13T12:03:00.510Z,59.30
2023-04-13T12:05:35.715Z,59.29
2023-04-13T12:08:23.072Z,59.40
2023-04-13T12:11:40.417Z,59.56
2023-04-13T12:14:07.292Z,59.77
2023-04-13T12:19:16.231Z,59.99
2023-04-13T12:21:57.664Z,59.94
2023-04-13T12:24:42.732Z,60.18
2023-04-13T12:27:18.330Z,60.47
2023-04-13T12:29:52.484Z,60.72
2023-04-13T12:32:20.797Z,61.07
2023-04-13T12:34:49.490Z,61.26
2023-04-13T12:37:17.807Z,61.45
2023-04-13T12:39:46.829Z,61.82
2023-04-13T12:42:15.063Z,62.15
2023-04-13T12:44:47.751Z,62.51
2023-04-13T12:47:16.758Z,62.64
2023-04-13T12:49:45.091Z,62.70
2023-04-13T12:52:13.833Z,62.64
2023-04-13T12:54:42.253Z,62.72
2023-04-13T12:57:18.181Z,62.54
2023-04-13T12:59:53.822Z,62.33
2023-04-13T13:02:25.330Z,61.95
2023-04-13T13:04:58.604Z,61.78
2023-04-13T13:07:27.761Z,61.92
2023-04-13T13:10:02.484Z,62.14
2023-04-13T13:12:34.262Z,62.32
2023-04-13T13:15:05.888Z,62.66
2023-04-13T13:17:34.894Z,62.63
2023-04-13T13:20:05.286Z,62.69
2023-04-13T13:22:35.877Z,62.70
2023-04-13T13:25:08.549Z,62.51
2023-04-13T13:28:05.291Z,62.45
2023-04-13T13:30:26.847Z,62.57
2023-04-13T13:32:57.601Z,62.78
2023-04-13T13:35:31.232Z,62.68
2023-04-13T13:38:01.517Z,62.28
2023-04-13T13:40:35.149Z,62.30
2023-04-13T13:43:07.523Z,62.42
2023-04-13T13:45:42.926Z,62.79
2023-04-13T13:48:11.698Z,62.95
2023-04-13T13:50:46.551Z,62.84
2023-04-13T13:53:15.182Z,62.71
2023-04-13T13:55:43.814Z,62.54
2023-04-13T13:58:15.768Z,62.33
2023-04-13T14:00:44.053Z,62.35
2023-04-13T14:03:21.285Z,62.38
2023-04-13T14:05:57.345Z,62.41
2023-04-13T14:08:29.593Z,62.30
2023-04-13T14:10:59.012Z,62.44
2023-04-13T14:13:27.913Z,62.38
2023-04-13T14:18:40.018Z,61.90
2023-04-13T14:21:11.813Z,61.94
2023-04-13T14:23:45.638Z,61.81
2023-04-13T14:26:17.470Z,61.77
2023-04-13T14:28:53.286Z,61.76
2023-04-13T14:31:26.763Z,61.74
2023-04-13T14:33:56.894Z,61.71
2023-04-13T14:36:30.011Z,61.80
2023-04-13T14:39:07.706Z,61.80
2023-04-13T14:41:39.037Z,61.85
2023-04-13T14:44:09.433Z,61.70
2023-04-13T14:46:40.752Z,61.57
2023-04-13T14:49:17.134Z,61.71
2023-04-13T14:51:46.099Z,61.84
2023-04-13T14:54:14.608Z,62.01
2023-04-13T14:56:44.560Z,62.01
2023-04-13T14:59:15.189Z,61.77
2023-04-13T15:01:51.642Z,61.83
2023-04-13T15:04:20.870Z,61.86
2023-04-13T15:06:54.505Z,62.08
2023-04-13T15:09:25.084Z,62.17
2023-04-13T15:11:55.644Z,62.45
2023-04-13T15:14:23.895Z,62.45
2023-04-13T15:16:54.982Z,62.58
2023-04-13T15:19:24.515Z,62.54
2023-04-13T15:21:56.617Z,62.54
2023-04-13T15:24:26.434Z,62.49
2023-04-13T15:26:56.690Z,62.52
2023-04-13T15:29:28.425Z,62.64
2023-04-13T15:32:00.606Z,62.68
2023-04-13T15:34:28.856Z,62.66
2023-04-13T15:37:01.744Z,62.49
2023-04-13T15:39:30.005Z,62.58
2023-04-13T15:42:00.572Z,62.76
2023-04-13T15:44:31.409Z,63.05
2023-04-13T15:47:02.952Z,63.13
2023-04-13T15:49:32.984Z,63.15
2023-04-13T15:52:01.159Z,63.49
2023-04-13T15:54:30.105Z,63.74
2023-04-13T15:57:02.648Z,63.90
2023-04-13T15:59:35.083Z,64.10
2023-04-13T16:02:05.064Z,64.16
2023-04-13T16:04:33.597Z,64.23
2023-04-13T16:07:12.686Z,64.42
2023-04-13T16:09:48.534Z,65.06
2023-04-13T16:12:18.899Z,65.42
2023-04-13T16:14:47.187Z,65.83
2023-04-13T16:17:31.652Z,66.22
2023-04-13T16:20:05.668Z,66.65
2023-04-13T16:22:37.498Z,66.82
2023-04-13T16:25:16.100Z,66.98
2023-04-13T16:27:54.810Z,67.12
2023-04-13T16:30:24.167Z,67.27
2023-04-13T16:33:04.438Z,67.27
2023-04-13T16:35:36.493Z,67.18
2023-04-13T16:38:07.322Z,67.34
2023-04-13T16:40:39.537Z,67.40
2023-04-13T16:43:10.792Z,67.49
2023-04-13T16:45:41.405Z,67.68
2023-04-13T16:48:12.492Z,67.71
2023-04-13T16:50:42.383Z,67.80
2023-04-13T16:53:12.128Z,67.90
2023-04-13T16:55:51.104Z,67.90
2023-04-13T16:58:22.317Z,67.93
2023-04-13T17:00:54.610Z,68.01
2023-04-13T17:03:25.989Z,68.05
2023-04-13T17:05:55.783Z,68.03
2023-04-13T17:08:40.757Z,68.06
2023-04-13T17:11:16.197Z,68.00
2023-04-13T17:13:47.346Z,68.10
2023-04-13T17:16:34.451Z,68.16
2023-04-13T17:19:06.760Z,68.07
2023-04-13T17:21:38.180Z,68.07
2023-04-13T17:24:09.003Z,68.22
2023-04-13T17:26:40.482Z,68.40
2023-04-13T17:29:09.502Z,68.42
2023-04-13T17:31:43.356Z,68.50
2023-04-13T17:34:13.975Z,68.48
2023-04-13T17:36:46.840Z,68.59
2023-04-13T17:39:16.370Z,68.94
2023-04-13T17:41:49.658Z,69.21
2023-04-13T17:44:20.623Z,69.49
2023-04-13T17:46:57.691Z,69.89
2023-04-13T17:49:42.048Z,70.11
2023-04-13T17:52:21.263Z,70.27
2023-04-13T17:54:54.269Z,70.47
2023-04-13T17:57:27.040Z,70.61
2023-04-13T17:59:56.790Z,70.85
2023-04-13T18:02:29.669Z,71.19
2023-04-13T18:05:00.906Z,71.55
2023-04-13T18:07:38.302Z,71.68
2023-04-13T18:10:13.394Z,71.77
2023-04-13T18:12:53.656Z,71.74
2023-04-13T18:15:32.038Z,71.83
2023-04-13T18:18:04.883Z,71.85
2023-04-13T18:20:42.574Z,71.81
2023-04-13T18:23:14.916Z,71.74
2023-04-13T18:28:26.615Z,71.71
2023-04-13T18:31:07.050Z,71.69
2023-04-13T18:33:46.264Z,71.61
2023-04-13T18:36:16.349Z,71.62
2023-04-13T18:38:57.955Z,71.57
2023-04-13T18:41:27.745Z,71.52
2023-04-13T18:44:07.028Z,71.58
2023-04-13T18:46:42.208Z,71.66
2023-04-13T18:49:10.625Z,71.63
2023-04-13T18:51:43.693Z,71.66
2023-04-13T18:54:12.409Z,71.74
2023-04-13T18:56:40.848Z,71.70
2023-04-13T18:59:22.766Z,71.69
2023-04-13T19:01:54.637Z,71.62
2023-04-13T19:04:25.969Z,71.69
2023-04-13T19:07:00.010Z,71.75
2023-04-13T19:09:31.468Z,71.89
2023-04-13T19:12:06.229Z,71.97
2023-04-13T19:14:44.587Z,72.06
2023-04-13T19:17:16.589Z,72.19
2023-04-13T19:19:45.365Z,72.13
2023-04-13T19:22:13.479Z,71.95
2023-04-13T19:24:45.953Z,71.88
2023-04-13T19:27:14.347Z,71.85
2023-04-13T19:29:42.561Z,71.62
2023-04-13T19:32:17.932Z,71.15
2023-04-13T19:34:48.392Z,71.21
2023-04-13T19:37:22.536Z,71.42
2023-04-13T19:39:57.618Z,71.27
2023-04-13T19:42:27.313Z,71.30
2023-04-13T19:44:55.573Z,71.31
2023-04-13T19:47:29.301Z,71.34
2023-04-13T19:50:02.167Z,71.26
2023-04-13T19:52:31.449Z,71.17
2023-04-13T19:55:01.563Z,71.18
2023-04-13T19:57:49.886Z,71.11
2023-04-13T20:00:23.915Z,71.10
2023-04-13T20:03:06.299Z,71.22
2023-04-13T20:05:39.143Z,71.51
2023-04-13T20:08:12.256Z,71.49
2023-04-13T20:10:42.626Z,71.61
2023-04-13T20:13:12.399Z,71.50
2023-04-13T20:15:45.212Z,71.59
2023-04-13T20:18:17.420Z,71.65
2023-04-13T20:20:48.259Z,71.67
2023-04-13T20:23:16.544Z,71.59
2023-04-13T20:25:47.851Z,71.55
2023-04-13T20:28:17.896Z,71.59
2023-04-13T20:30:46.399Z,71.75
2023-04-13T20:33:16.553Z,71.94
2023-04-13T20:35:44.914Z,71.97
2023-04-13T20:38:14.254Z,72.23
2023-04-13T20:40:46.037Z,72.36
2023-04-13T20:43:20.595Z,72.35
2023-04-13T20:45:48.982Z,72.26
2023-04-13T20:50:50.464Z,72.50
2023-04-13T20:53:18.467Z,72.60
2023-04-13T20:55:50.422Z,72.57
2023-04-13T20:58:18.684Z,72.41
2023-04-13T21:00:46.891Z,72.21
2023-04-13T21:03:16.527Z,72.24
2023-04-13T21:05:45.600Z,72.35
2023-04-13T21:08:13.960Z,72.46
2023-04-13T21:10:43.780Z,72.44
2023-04-13T21:13:15.023Z,72.26
2023-04-13T21:15:43.200Z,72.23
2023-04-13T21:18:11.998Z,72.43
2023-04-13T21:20:43.662Z,72.64
2023-04-13T21:23:11.872Z,72.69
2023-04-13T21:25:44.838Z,72.74
2023-04-13T21:28:15.054Z,72.75
2023-04-13T21:30:43.227Z,72.71
2023-04-13T21:33:12.756Z,72.79
2023-04-13T21:35:41.100Z,72.76
2023-04-13T21:38:09.409Z,72.66
2023-04-13T21:40:37.780Z,72.64
2023-04-13T21:43:06.191Z,72.54
2023-04-13T21:45:35.592Z,72.47
2023-04-13T21:48:04.522Z,72.49
2023-04-13T21:50:32.853Z,72.53
2023-04-13T21:53:01.571Z,72.46
2023-04-13T21:55:30.043Z,72.38
2023-04-13T21:57:58.201Z,72.40
2023-04-13T22:00:27.001Z,72.49
2023-04-13T22:02:56.737Z,72.38
2023-04-13T22:05:25.010Z,72.42
2023-04-13T22:07:54.207Z,72.52
2023-04-13T22:10:22.892Z,72.46
2023-04-13T22:12:51.065Z,72.43
2023-04-13T22:15:22.726Z,72.34
2023-04-13T22:17:51.694Z,72.31
2023-04-13T22:20:20.525Z,71.99
2023-04-13T22:22:48.712Z,71.87
2023-04-13T22:25:17.400Z,72.04
2023-04-13T22:27:45.676Z,72.14
2023-04-13T22:30:17.230Z,71.97
2023-04-13T22:32:45.741Z,72.00
2023-04-13T22:35:14.524Z,72.07
2023-04-13T22:37:43.306Z,72.03
2023-04-13T22:40:12.098Z,72.10
2023-04-13T22:42:40.312Z,72.01
2023-04-13T22:45:09.073Z,72.08
2023-04-13T22:47:37.812Z,71.99
2023-04-13T22:50:07.306Z,71.97
2023-04-13T22:52:37.798Z,72.20
2023-04-13T22:55:06.608Z,72.30
2023-04-13T22:57:35.386Z,72.42
2023-04-13T23:00:05.937Z,72.69
2023-04-13T23:02:35.716Z,72.85
2023-04-13T23:05:04.700Z,72.91
2023-04-13T23:07:32.879Z,73.14
2023-04-13T23:10:01.752Z,73.48
2023-04-13T23:12:30.292Z,73.65
2023-04-13T23:14:58.593Z,73.65
2023-04-13T23:17:29.688Z,73.66
2023-04-13T23:19:58.300Z,73.72
2023-04-13T23:22:26.490Z,73.80
2023-04-13T23:24:55.987Z,73.95
2023-04-13T23:27:24.337Z,74.02
2023-04-13T23:29:52.447Z,74.04
2023-04-13T23:34:51.384Z,74.06
2023-04-13T23:37:19.762Z,74.07
2023-04-13T23:39:49.176Z,74.08
2023-04-13T23:42:17.232Z,74.00
2023-04-13T23:44:45.554Z,73.96
2023-04-13T23:47:13.641Z,74.07
2023-04-13T23:49:42.513Z,74.03
2023-04-13T23:52:10.697Z,74.09
2023-04-13T23:54:39.167Z,73.97
2023-04-13T23:57:07.356Z,73.86
2023-04-13T23:59:36.454Z,73.84
